Time;durP1;ratioP1;P1;durP2;ratioP2;P2;SDS_P1;SDS_P2;PMS_P1;PMS_P2;Temp;Humidity;BMP_temperature;BMP_pressure;BME280_temperature;BME280_humidity;BME280_pressure;Samples;Min_cycle;Max_cycle;Signal;HPM_P1;HPM_P2
2022/05/24 00:00:19;;;;;;;;;;;;;;;21.78;100.00;97555.06;5022429;28;19931;-41
2022/05/24 00:02:44;;;;;;;;;;;;;;;21.09;100.00;97560.94;5005235;28;19925;-41
2022/05/24 00:05:10;;;;;;;;;;;;;;;21.33;100.00;97566.56;5023462;28;19917;-41
2022/05/24 00:07:36;;;;;;;;;;;;;;;21.44;100.00;97563.69;5022545;28;20772;-41
2022/05/24 00:10:01;;;;;;;;;;;;;;;21.03;100.00;97563.38;5020879;28;19924;-40
2022/05/24 00:12:27;;;;;;;;;;;;;;;21.25;100.00;97569.91;5025062;28;19924;-40
2022/05/24 00:17:36;;;;;;;;;;;;;;;21.12;100.00;97574.69;5025186;28;20006;-40
2022/05/24 00:20:02;;;;;;;;;;;;;;;20.99;100.00;97575.91;5021494;28;20471;-41
2022/05/24 00:22:27;;;;;;;;;;;;;;;21.44;100.00;97567.16;5003891;28;19949;-41
2022/05/24 00:24:53;;;;;;;;;;;;;;;21.01;100.00;97570.53;5019048;28;19917;-41
2022/05/24 00:27:18;;;;;;;;;;;;;;;20.75;100.00;97568.63;5006936;28;19924;-42
2022/05/24 00:29:43;;;;;;;;;;;;;;;21.23;100.00;97559.59;5006694;28;19924;-42
2022/05/24 00:32:08;;;;;;;;;;;;;;;19.65;100.00;97562.38;5023438;28;20011;-42
2022/05/24 00:34:34;;;;;;;;;;;;;;;19.73;100.00;97560.84;5021993;28;19956;-42
2022/05/24 00:36:59;;;;;;;;;;;;;;;19.97;100.00;97563.81;5002339;28;19916;-42
2022/05/24 00:39:24;;;;;;;;;;;;;;;20.64;100.00;97564.47;5022801;28;19917;-42
2022/05/24 00:41:55;;;;;;;;;;;;;;;21.24;100.00;97560.41;5021798;28;19917;-42
2022/05/24 00:44:20;;;;;;;;;;;;;;;20.67;100.00;97560.72;5006721;28;19921;-44
2022/05/24 00:46:45;;;;;;;;;;;;;;;20.89;100.00;97565.53;5028623;28;19923;-42
2022/05/24 00:49:15;;;;;;;;;;;;;;;20.83;100.00;97560.88;5028013;28;20011;-42
2022/05/24 00:51:43;;;;;;;;;;;;;;;21.39;100.00;97555.44;5009783;28;19921;-41
2022/05/24 00:54:09;;;;;;;;;;;;;;;21.60;100.00;97548.09;5029259;28;19927;-42
2022/05/24 00:56:52;;;;;;;;;;;;;;;21.38;100.00;97549.38;5011123;28;19916;-41
2022/05/24 00:59:29;;;;;;;;;;;;;;;21.29;100.00;97551.13;5009118;28;19926;-41
2022/05/24 01:01:55;;;;;;;;;;;;;;;20.13;100.00;97557.16;5012193;28;19952;-41
2022/05/24 01:04:20;;;;;;;;;;;;;;;21.31;100.00;97553.59;5029387;28;20474;-40
2022/05/24 01:06:46;;;;;;;;;;;;;;;21.49;100.00;97545.75;5028486;28;19971;-40
2022/05/24 01:09:22;;;;;;;;;;;;;;;21.16;100.00;97545.44;5027419;28;19963;-41
2022/05/24 01:11:49;;;;;;;;;;;;;;;21.70;100.00;97543.56;5005508;28;19924;-41
2022/05/24 01:14:15;;;;;;;;;;;;;;;21.79;100.00;97541.81;5024352;28;20530;-41
2022/05/24 01:16:40;;;;;;;;;;;;;;;20.44;100.00;97529.72;5006885;28;19917;-41
2022/05/24 01:19:07;;;;;;;;;;;;;;;20.88;100.00;97536.88;5028716;28;19916;-40
2022/05/24 01:21:32;;;;;;;;;;;;;;;21.49;100.00;97530.03;5010035;28;20408;-40
2022/05/24 01:24:04;;;;;;;;;;;;;;;21.05;100.00;97543.06;5024078;28;19925;-41
2022/05/24 01:26:32;;;;;;;;;;;;;;;21.41;100.00;97540.44;5006031;28;19921;-40
2022/05/24 01:28:58;;;;;;;;;;;;;;;21.64;100.00;97533.69;5025752;28;20638;-40
2022/05/24 01:31:24;;;;;;;;;;;;;;;21.40;100.00;97529.16;5004647;28;19917;-40
2022/05/24 01:36:35;;;;;;;;;;;;;;;21.27;100.00;97537.34;5012101;28;20927;-41
2022/05/24 01:39:02;;;;;;;;;;;;;;;21.20;100.00;97531.09;5004221;28;19917;-41
2022/05/24 01:41:30;;;;;;;;;;;;;;;20.89;100.00;97530.66;5007102;28;21036;-40
2022/05/24 01:43:55;;;;;;;;;;;;;;;21.53;100.00;97531.38;5022874;28;19932;-41
2022/05/24 01:46:21;;;;;;;;;;;;;;;20.84;100.00;97536.34;5007284;28;19924;-40
2022/05/24 01:48:50;;;;;;;;;;;;;;;21.34;100.00;97536.75;5007406;28;19917;-41
2022/05/24 01:51:16;;;;;;;;;;;;;;;21.72;100.00;97536.38;5006970;28;19923;-40
2022/05/24 01:53:42;;;;;;;;;;;;;;;19.86;100.00;97537.84;5010035;28;20751;-40
2022/05/24 01:56:09;;;;;;;;;;;;;;;20.26;100.00;97536.72;5006055;28;20031;-40
2022/05/24 01:58:35;;;;;;;;;;;;;;;20.39;100.00;97550.28;5023699;28;19921;-40
2022/05/24 02:01:30;;;;;;;;;;;;;;;19.87;100.00;97546.53;5005152;28;20015;-40
2022/05/24 02:03:59;;;;;;;;;;;;;;;20.61;100.00;97548.22;5003837;28;20215;-40
2022/05/24 02:06:26;;;;;;;;;;;;;;;20.37;100.00;97539.13;5022608;28;19923;-41
2022/05/24 02:08:52;;;;;;;;;;;;;;;21.28;100.00;97539.03;5026306;28;19928;-40
2022/05/24 02:11:18;;;;;;;;;;;;;;;21.06;100.00;97534.25;5025233;28;19917;-40
2022/05/24 02:13:45;;;;;;;;;;;;;;;21.56;100.00;97525.00;4999458;28;19944;-40
2022/05/24 02:16:11;;;;;;;;;;;;;;;21.64;100.00;97533.69;5025656;28;19943;-40
2022/05/24 02:18:39;;;;;;;;;;;;;;;21.52;100.00;97540.19;5024665;28;19924;-40
2022/05/24 02:21:04;;;;;;;;;;;;;;;21.47;100.00;97558.16;5019139;28;19939;-40
2022/05/24 02:23:30;;;;;;;;;;;;;;;21.27;100.00;97557.50;5004158;28;19921;-40
2022/05/24 02:25:56;;;;;;;;;;;;;;;21.65;100.00;97547.63;5012759;28;19917;-40
2022/05/24 02:28:23;;;;;;;;;;;;;;;21.49;100.00;97535.25;5023780;28;20287;-40
2022/05/24 02:30:50;;;;;;;;;;;;;;;20.84;100.00;97541.59;5022886;28;19921;-40
2022/05/24 02:33:15;;;;;;;;;;;;;;;20.79;100.00;97543.00;5023899;28;19923;-40
2022/05/24 02:35:41;;;;;;;;;;;;;;;21.30;100.00;97531.84;5023158;28;20722;-40
2022/05/24 02:38:06;;;;;;;;;;;;;;;21.70;100.00;97527.84;5026790;28;19927;-41
2022/05/24 02:43:15;;;;;;;;;;;;;;;21.45;100.00;97529.50;5025633;28;20842;-40
2022/05/24 02:45:40;;;;;;;;;;;;;;;21.68;100.00;97531.59;5008199;28;19921;-40
2022/05/24 02:48:06;;;;;;;;;;;;;;;21.56;100.00;97533.66;5023940;28;20434;-40
2022/05/24 02:50:31;;;;;;;;;;;;;;;20.39;100.00;97537.19;5025500;28;20011;-40
2022/05/24 02:52:57;;;;;;;;;;;;;;;20.96;100.00;97538.75;5024500;28;19960;-40
2022/05/24 02:55:22;;;;;;;;;;;;;;;20.98;100.00;97531.56;5022897;28;19928;-40
2022/05/24 02:57:47;;;;;;;;;;;;;;;21.04;100.00;97530.97;5022419;28;19987;-40
2022/05/24 03:00:20;;;;;;;;;;;;;;;21.33;100.00;97535.13;5022593;28;19924;-40
2022/05/24 03:02:45;;;;;;;;;;;;;;;21.22;100.00;97533.56;5023448;28;19917;-40
2022/05/24 03:05:12;;;;;;;;;;;;;;;21.35;100.00;97539.22;5024977;28;19967;-40
2022/05/24 03:10:21;;;;;;;;;;;;;;;21.07;100.00;97531.50;5025281;28;19924;-40
2022/05/24 03:15:30;;;;;;;;;;;;;;;21.59;100.00;97520.25;5023605;28;19978;-40
2022/05/24 03:17:55;;;;;;;;;;;;;;;21.14;100.00;97515.16;5022528;28;19920;-40
2022/05/24 03:20:20;;;;;;;;;;;;;;;20.15;100.00;97519.44;5024927;28;20410;-39
2022/05/24 03:22:46;;;;;;;;;;;;;;;21.14;100.00;97515.16;5023311;28;19939;-39
2022/05/24 03:25:11;;;;;;;;;;;;;;;21.21;100.00;97509.19;5021543;28;20729;-40
2022/05/24 03:27:36;;;;;;;;;;;;;;;21.08;100.00;97506.97;5002977;28;19927;-40
2022/05/24 03:30:02;;;;;;;;;;;;;;;21.33;100.00;97504.53;5002123;28;19917;-39
2022/05/24 03:32:27;;;;;;;;;;;;;;;21.47;100.00;97492.69;4998094;28;20523;-39
2022/05/24 03:34:52;;;;;;;;;;;;;;;21.52;100.00;97487.78;5022376;28;19952;-40
2022/05/24 03:37:18;;;;;;;;;;;;;;;21.17;100.00;97478.22;5019611;28;19947;-40
2022/05/24 03:39:43;;;;;;;;;;;;;;;21.37;100.00;97482.28;5021555;28;19917;-40
2022/05/24 03:42:08;;;;;;;;;;;;;;;21.45;100.00;97481.53;5020993;28;20282;-40
2022/05/24 03:44:33;;;;;;;;;;;;;;;21.33;100.00;97473.09;5011864;28;19921;-40
2022/05/24 03:46:59;;;;;;;;;;;;;;;20.49;100.00;97492.69;5020317;28;20373;-40
2022/05/24 03:49:24;;;;;;;;;;;;;;;20.88;100.00;97485.38;5002384;28;19970;-41
2022/05/24 03:51:49;;;;;;;;;;;;;;;20.49;100.00;97484.81;5021156;28;20724;-39
2022/05/24 03:54:15;;;;;;;;;;;;;;;20.84;100.00;97489.25;5003048;28;20013;-39
2022/05/24 03:57:59;;;;;;;;;;;;;;;20.92;100.00;97487.69;5020479;28;20378;-39
2022/05/24 03:59:26;;;;;;;;;;;;;;;21.02;100.00;97496.25;5021287;28;19925;-39
2022/05/24 04:01:51;;;;;;;;;;;;;;;20.58;100.00;97499.66;5019522;28;19917;-39
2022/05/24 04:04:16;;;;;;;;;;;;;;;20.91;100.00;97506.97;5021779;28;19921;-39
2022/05/24 04:06:41;;;;;;;;;;;;;;;20.91;100.00;97506.97;5022331;28;19917;-39
2022/05/24 04:09:07;;;;;;;;;;;;;;;21.18;100.00;97513.91;5016715;28;19963;-39
2022/05/24 04:11:32;;;;;;;;;;;;;;;20.93;100.00;97515.50;5026026;28;19924;-39
2022/05/24 04:13:57;;;;;;;;;;;;;;;21.04;100.00;97510.03;5021001;28;19935;-39
2022/05/24 04:16:22;;;;;;;;;;;;;;;21.26;100.00;97508.72;5020619;28;19917;-39
2022/05/24 04:18:48;;;;;;;;;;;;;;;21.39;100.00;97516.16;5023391;28;19924;-39
2022/05/24 04:21:14;;;;;;;;;;;;;;;21.52;100.00;97516.59;5020272;28;19923;-39
2022/05/24 04:23:39;;;;;;;;;;;;;;;21.71;100.00;97513.78;5020520;28;19921;-39
2022/05/24 04:26:05;;;;;;;;;;;;;;;20.87;100.00;97519.56;5020324;28;20528;-39
2022/05/24 04:28:30;;;;;;;;;;;;;;;21.46;100.00;97519.84;5018926;28;20887;-39
2022/05/24 04:30:55;;;;;;;;;;;;;;;21.13;100.00;97516.97;5019156;28;19924;-40
2022/05/24 04:33:20;;;;;;;;;;;;;;;21.46;100.00;97525.06;5019496;28;19978;-40
2022/05/24 04:35:46;;;;;;;;;;;;;;;21.35;100.00;97517.44;5019951;28;19917;-40
2022/05/24 04:38:11;;;;;;;;;;;;;;;21.44;100.00;97520.00;5024244;28;19917;-40
2022/05/24 04:43:20;;;;;;;;;;;;;;;21.14;100.00;97536.94;5032146;28;19954;-40
2022/05/24 04:45:46;;;;;;;;;;;;;;;20.27;100.00;97543.59;5030602;28;20653;-40
2022/05/24 04:48:11;;;;;;;;;;;;;;;20.21;100.00;97544.19;5035428;28;19955;-40
2022/05/24 04:50:36;;;;;;;;;;;;;;;20.69;100.00;97545.72;5032287;28;19962;-40
2022/05/24 04:53:02;;;;;;;;;;;;;;;21.12;100.00;97541.53;5028467;28;20013;-40
2022/05/24 04:55:28;;;;;;;;;;;;;;;21.01;100.00;97542.56;5031006;28;19921;-40
2022/05/24 04:57:54;;;;;;;;;;;;;;;21.17;100.00;97541.88;5013631;28;19921;-40
2022/05/24 05:00:20;;;;;;;;;;;;;;;20.14;100.00;97553.53;5017006;28;19924;-40
2022/05/24 05:02:45;;;;;;;;;;;;;;;20.97;100.00;97545.63;5027227;28;19924;-40
2022/05/24 05:05:11;;;;;;;;;;;;;;;20.38;100.00;97556.47;5034340;28;20568;-40
2022/05/24 05:07:36;;;;;;;;;;;;;;;21.10;100.00;97553.94;5036714;28;19912;-40
2022/05/24 05:10:01;;;;;;;;;;;;;;;20.57;100.00;97560.81;5033736;28;20313;-40
2022/05/24 05:12:26;;;;;;;;;;;;;;;20.89;100.00;97560.28;5031422;28;19978;-40
2022/05/24 05:14:52;;;;;;;;;;;;;;;21.16;100.00;97555.91;5037639;28;19917;-40
2022/05/24 05:17:18;;;;;;;;;;;;;;;20.42;100.00;97557.81;5035853;28;19916;-40
2022/05/24 05:19:44;;;;;;;;;;;;;;;20.43;100.00;97559.44;5034465;28;19917;-40
2022/05/24 05:22:09;;;;;;;;;;;;;;;19.79;100.00;97565.53;5002286;28;19963;-40
2022/05/24 05:24:34;;;;;;;;;;;;;;;20.60;100.00;97570.16;5023127;28;19925;-40
2022/05/24 05:27:00;;;;;;;;;;;;;;;20.42;100.00;97570.88;5024998;28;20031;-40
2022/05/24 05:32:14;;;;;;;;;;;;;;;20.77;100.00;97587.63;5011592;28;19924;-40
2022/05/24 05:34:40;;;;;;;;;;;;;;;20.58;100.00;97590.38;5010346;28;20063;-40
2022/05/24 05:37:05;;;;;;;;;;;;;;;20.32;100.00;97604.13;5027899;28;20008;-40
2022/05/24 05:39:31;;;;;;;;;;;;;;;19.34;100.00;97613.13;5030453;28;19929;-40
2022/05/24 05:41:56;;;;;;;;;;;;;;;20.23;100.00;97615.41;5026766;28;19952;-39
2022/05/24 05:44:21;;;;;;;;;;;;;;;19.98;100.00;97627.34;5028909;28;20695;-39
2022/05/24 05:46:47;;;;;;;;;;;;;;;19.85;100.00;97643.34;5030446;28;19920;-39
2022/05/24 05:49:13;;;;;;;;;;;;;;;19.21;100.00;97650.78;5027853;28;20008;-40
2022/05/24 05:51:39;;;;;;;;;;;;;;;18.80;100.00;97667.47;5025658;28;20007;-41
2022/05/24 05:54:04;;;;;;;;;;;;;;;18.94;100.00;97674.09;5036353;28;19925;-43
2022/05/24 05:56:30;;;;;;;;;;;;;;;18.64;100.00;97687.97;5043036;28;20663;-41
2022/05/24 05:58:55;;;;;;;;;;;;;;;17.80;100.00;97688.88;5037410;28;19964;-42
2022/05/24 06:01:21;;;;;;;;;;;;;;;18.20;100.00;97688.22;5032928;28;19921;-42
2022/05/24 06:03:46;;;;;;;;;;;;;;;18.69;100.00;97697.03;5036081;28;19927;-43
2022/05/24 06:06:16;;;;;;;;;;;;;;;18.17;100.00;97701.47;5036069;28;19916;-41
2022/05/24 06:08:41;;;;;;;;;;;;;;;18.21;100.00;97708.09;5033636;28;20010;-41
2022/05/24 06:11:06;;;;;;;;;;;;;;;18.03;100.00;97720.88;5029582;28;20004;-43
2022/05/24 06:13:31;;;;;;;;;;;;;;;18.94;100.00;97721.03;5030904;28;20290;-43
2022/05/24 06:15:57;;;;;;;;;;;;;;;19.33;100.00;97715.91;5030651;28;20455;-44
2022/05/24 06:18:22;;;;;;;;;;;;;;;19.16;100.00;97720.81;5008057;28;19974;-43
2022/05/24 06:20:47;;;;;;;;;;;;;;;19.23;100.00;97724.53;5027611;28;20693;-43
2022/05/24 06:23:13;;;;;;;;;;;;;;;19.02;100.00;97734.22;5026087;28;20538;-45
2022/05/24 06:25:40;;;;;;;;;;;;;;;18.74;100.00;97733.97;5008360;28;19920;-43
2022/05/24 06:28:05;;;;;;;;;;;;;;;18.97;100.00;97747.69;5024935;28;19921;-45
2022/05/24 06:30:31;;;;;;;;;;;;;;;19.04;100.00;97749.75;5027167;28;19943;-46
2022/05/24 06:32:56;;;;;;;;;;;;;;;18.86;100.00;97750.41;5020063;28;19921;-44
2022/05/24 06:35:21;;;;;;;;;;;;;;;18.39;100.00;97756.06;5024689;28;19917;-43
2022/05/24 06:37:48;;;;;;;;;;;;;;;17.40;100.00;97767.59;5023915;28;20028;-43
2022/05/24 06:40:14;;;;;;;;;;;;;;;18.24;100.00;97777.34;5024417;28;19917;-43
2022/05/24 06:42:39;;;;;;;;;;;;;;;18.35;100.00;97780.72;5008642;28;19966;-43
2022/05/24 06:45:05;;;;;;;;;;;;;;;18.52;100.00;97784.53;5024856;28;19921;-44
2022/05/24 06:47:30;;;;;;;;;;;;;;;17.95;100.00;97781.41;5026732;28;19917;-45
2022/05/24 06:49:56;;;;;;;;;;;;;;;18.42;100.00;97783.63;5032211;28;19943;-43
2022/05/24 06:52:22;;;;;;;;;;;;;;;18.44;100.00;97778.31;5030145;28;19970;-43
2022/05/24 06:54:47;;;;;;;;;;;;;;;19.11;100.00;97775.22;5027556;28;19936;-43
2022/05/24 06:57:12;;;;;;;;;;;;;;;19.01;100.00;97777.78;5025256;28;20869;-43
2022/05/24 07:02:27;;;;;;;;;;;;;;;18.72;100.00;97798.47;5029384;28;20094;-44
2022/05/24 07:05:03;;;;;;;;;;;;;;;18.52;100.00;97804.53;5024562;28;19927;-44
2022/05/24 07:07:30;;;;;;;;;;;;;;;18.91;100.00;97807.41;5022707;28;19930;-43
2022/05/24 07:09:55;;;;;;;;;;;;;;;18.38;100.00;97808.31;5025208;28;19970;-43
2022/05/24 07:12:21;;;;;;;;;;;;;;;18.25;100.00;97808.50;5027058;28;21201;-43
2022/05/24 07:14:46;;;;;;;;;;;;;;;18.56;100.00;97801.56;5023905;28;19956;-44
2022/05/24 07:17:12;;;;;;;;;;;;;;;18.84;100.00;97804.50;5027587;28;20383;-43
2022/05/24 07:19:38;;;;;;;;;;;;;;;18.94;100.00;97807.97;5023605;28;19975;-44
2022/05/24 07:22:04;;;;;;;;;;;;;;;18.98;100.00;97811.16;5024595;28;19921;-42
2022/05/24 07:24:29;;;;;;;;;;;;;;;18.90;100.00;97811.78;5023859;28;19920;-43
2022/05/24 07:26:55;;;;;;;;;;;;;;;18.88;100.00;97805.03;5027304;28;20008;-44
2022/05/24 07:29:20;;;;;;;;;;;;;;;19.47;100.00;97780.75;5022761;28;19996;-43
2022/05/24 07:31:46;;;;;;;;;;;;;;;19.11;100.00;97758.72;5021522;28;19939;-44
2022/05/24 07:34:11;;;;;;;;;;;;;;;19.50;100.00;97777.91;5023651;28;20331;-44
2022/05/24 07:36:36;;;;;;;;;;;;;;;19.37;100.00;97790.38;5022829;28;19921;-43
2022/05/24 07:39:01;;;;;;;;;;;;;;;19.26;100.00;97785.28;5005859;28;19944;-44
2022/05/24 07:46:56;;;;;;;;;;;;;;;18.91;100.00;97820.44;5022581;28;20011;-43
2022/05/24 07:49:21;;;;;;;;;;;;;;;18.46;100.00;97831.16;5026103;28;19970;-42
2022/05/24 07:51:46;;;;;;;;;;;;;;;17.53;100.00;97837.75;5022614;28;19921;-44
2022/05/24 07:54:11;;;;;;;;;;;;;;;17.97;100.00;97846.41;5012623;28;21081;-42
2022/05/24 07:56:37;;;;;;;;;;;;;;;18.08;100.00;97842.94;5008399;28;20066;-42
2022/05/24 07:59:03;;;;;;;;;;;;;;;18.23;100.00;97851.28;5007105;28;19985;-43
2022/05/24 08:01:28;;;;;;;;;;;;;;;18.91;100.00;97836.94;5027574;28;20779;-43
2022/05/24 08:03:53;;;;;;;;;;;;;;;19.44;100.00;97820.22;5024504;28;20339;-43
2022/05/24 08:06:18;;;;;;;;;;;;;;;19.69;100.00;97805.03;5024420;28;19917;-43
2022/05/24 08:08:44;;;;;;;;;;;;;;;19.53;100.00;97818.59;5010500;28;20529;-43
2022/05/24 08:11:09;;;;;;;;;;;;;;;19.78;100.00;97822.50;5029011;28;19917;-42
2022/05/24 08:13:35;;;;;;;;;;;;;;;19.38;100.00;97836.41;5010013;28;20370;-44
2022/05/24 08:16:00;;;;;;;;;;;;;;;18.89;100.00;97843.22;5026860;28;19963;-42
2022/05/24 08:18:25;;;;;;;;;;;;;;;18.75;100.00;97847.78;5010158;28;20393;-44
2022/05/24 08:20:51;;;;;;;;;;;;;;;18.71;100.00;97856.81;5022841;28;19986;-42
2022/05/24 08:23:20;;;;;;;;;;;;;;;19.34;100.00;97856.75;5029665;28;20008;-43
2022/05/24 08:25:45;;;;;;;;;;;;;;;19.61;100.00;97850.91;5021781;28;19917;-42
2022/05/24 08:28:10;;;;;;;;;;;;;;;19.23;100.00;97860.28;5020952;28;19924;-42
2022/05/24 08:30:37;;;;;;;;;;;;;;;19.42;100.00;97858.69;5028543;28;19924;-41
2022/05/24 08:33:04;;;;;;;;;;;;;;;20.25;100.00;97843.53;5027188;28;20295;-42
2022/05/24 08:35:29;;;;;;;;;;;;;;;19.91;100.00;97857.03;5025601;28;19963;-41
2022/05/24 08:37:55;;;;;;;;;;;;;;;20.61;100.00;97849.03;5006012;28;19997;-42
2022/05/24 08:40:22;;;;;;;;;;;;;;;20.29;100.00;97844.09;5023485;28;19978;-41
2022/05/24 08:42:59;;;;;;;;;;;;;;;20.24;100.00;97847.13;5025397;28;20366;-41
2022/05/24 08:48:29;;;;;;;;;;;;;;;20.97;100.00;97844.81;5016723;28;20037;-42
2022/05/24 08:51:21;;;;;;;;;;;;;;;20.54;100.00;97847.94;5026537;28;19921;-41
2022/05/24 08:53:47;;;;;;;;;;;;;;;21.16;100.00;97851.75;5022047;28;19956;-41
2022/05/24 08:56:15;;;;;;;;;;;;;;;20.61;100.00;97844.63;5007833;28;20275;-41
2022/05/24 08:58:42;;;;;;;;;;;;;;;20.50;100.00;97857.84;5006099;28;20035;-41
2022/05/24 09:01:27;;;;;;;;;;;;;;;20.60;100.00;97857.88;5010020;28;20287;-41
2022/05/24 09:03:53;;;;;;;;;;;;;;;20.69;100.00;97851.78;5023694;28;19971;-41
2022/05/24 09:06:30;;;;;;;;;;;;;;;20.67;100.00;97859.78;5026599;28;20545;-41
2022/05/24 09:08:55;;;;;;;;;;;;;;;21.47;100.00;97846.28;5029409;28;20935;-41
2022/05/24 09:11:26;;;;;;;;;;;;;;;22.09;100.00;97847.25;5032415;28;20051;-41
2022/05/24 09:14:07;;;;;;;;;;;;;;;21.59;100.00;97860.81;5013303;28;19917;-41
2022/05/24 09:16:36;;;;;;;;;;;;;;;21.51;100.00;97868.59;5026428;28;19921;-41
2022/05/24 09:19:10;;;;;;;;;;;;;;;21.44;100.00;97872.75;5014555;28;19916;-41
2022/05/24 09:21:37;;;;;;;;;;;;;;;21.34;100.00;97879.81;5017513;28;19921;-41
2022/05/24 09:24:12;;;;;;;;;;;;;;;21.55;100.00;97896.13;5029265;28;19928;-40
2022/05/24 09:26:56;;;;;;;;;;;;;;;22.53;100.00;97884.06;5014005;28;19923;-40
2022/05/24 09:29:21;;;;;;;;;;;;;;;22.71;100.00;97889.25;5031512;28;19974;-40
2022/05/24 09:31:47;;;;;;;;;;;;;;;21.90;100.00;97899.81;5030397;28;19932;-40
2022/05/24 09:34:19;;;;;;;;;;;;;;;20.74;100.00;97911.53;5031907;28;20610;-40
2022/05/24 09:37:02;;;;;;;;;;;;;;;20.98;100.00;97922.38;5030662;28;19917;-40
2022/05/24 09:39:32;;;;;;;;;;;;;;;21.18;100.00;97920.53;5031791;28;19920;-40
2022/05/24 09:42:04;;;;;;;;;;;;;;;20.84;100.00;97928.84;5026737;28;19975;-40
2022/05/24 09:44:48;;;;;;;;;;;;;;;20.79;100.00;97935.50;5027335;28;19956;-40
2022/05/24 09:47:23;;;;;;;;;;;;;;;20.12;100.00;97942.34;5028974;28;19928;-40
2022/05/24 09:49:49;;;;;;;;;;;;;;;20.76;100.00;97944.44;5032122;28;20298;-40
2022/05/24 09:52:14;;;;;;;;;;;;;;;21.50;100.00;97935.88;5032650;28;19917;-40
2022/05/24 09:55:00;;;;;;;;;;;;;;;22.17;100.00;97942.69;5028971;28;19917;-40
2022/05/24 09:57:29;;;;;;;;;;;;;;;22.04;100.00;97946.50;5030156;28;20086;-40
2022/05/24 09:59:59;;;;;;;;;;;;;;;21.18;100.00;97940.66;5031042;28;20035;-40
2022/05/24 10:02:29;;;;;;;;;;;;;;;21.58;100.00;97931.72;5015507;28;20580;-40
2022/05/24 10:04:54;;;;;;;;;;;;;;;22.74;100.00;97936.19;5028334;28;20480;-40
2022/05/24 10:07:24;;;;;;;;;;;;;;;21.82;100.00;97949.53;5027974;28;19917;-40
2022/05/24 10:09:50;;;;;;;;;;;;;;;21.46;100.00;97945.00;5024062;28;19917;-40
2022/05/24 10:12:34;;;;;;;;;;;;;;;19.98;100.00;97946.16;5024055;28;19959;-40
2022/05/24 10:15:20;;;;;;;;;;;;;;;20.09;100.00;97953.88;5027739;28;19986;-40
2022/05/24 10:17:57;;;;;;;;;;;;;;;21.39;100.00;97953.53;5028248;28;19917;-39
2022/05/24 10:20:23;;;;;;;;;;;;;;;22.32;100.00;97938.63;5031695;28;19976;-40
2022/05/24 10:22:58;;;;;;;;;;;;;;;23.00;100.00;97942.47;5019429;28;19921;-40
2022/05/24 10:25:27;;;;;;;;;;;;;;;22.99;100.00;97952.16;5015820;28;19917;-40
2022/05/24 10:27:55;;;;;;;;;;;;;;;22.60;100.00;97947.22;5030398;28;19916;-40
2022/05/24 10:30:23;;;;;;;;;;;;;;;20.63;100.00;97931.66;5027874;28;19993;-40
2022/05/24 10:38:44;;;;;;;;;;;;;;;20.98;100.00;97955.56;5012050;28;19923;-40
2022/05/24 10:41:10;;;;;;;;;;;;;;;21.50;100.00;97956.00;5032130;28;19948;-40
2022/05/24 10:44:13;;;;;;;;;;;;;;;22.12;100.00;97951.84;5028708;28;20000;-40
2022/05/24 10:46:59;;;;;;;;;;;;;;;21.95;100.00;97955.25;4976762;28;19922;-40
2022/05/24 10:49:36;;;;;;;;;;;;;;;20.86;100.00;97962.75;4938060;28;20568;-39
2022/05/24 10:52:17;;;;;;;;;;;;;;;22.01;100.00;97975.66;4978348;28;19917;-39
2022/05/24 10:54:45;;;;;;;;;;;;;;;21.26;100.00;97975.63;5025611;28;19913;-39
2022/05/24 10:57:11;;;;;;;;;;;;;;;20.21;100.00;97983.34;5031706;28;19970;-39
2022/05/24 10:59:55;;;;;;;;;;;;;;;21.69;100.00;97976.91;5028852;28;19920;-39
2022/05/24 11:02:38;;;;;;;;;;;;;;;21.87;100.00;97973.50;5026643;28;20440;-39
2022/05/24 11:05:06;;;;;;;;;;;;;;;22.22;100.00;97969.34;5025836;28;20309;-39
2022/05/24 11:07:32;;;;;;;;;;;;;;;23.30;100.00;97970.91;5023472;28;19917;-39
2022/05/24 11:10:09;;;;;;;;;;;;;;;22.41;100.00;97974.44;5010010;28;20279;-39
2022/05/24 11:12:41;;;;;;;;;;;;;;;22.15;97.70;97976.94;5008157;28;19932;-40
2022/05/24 11:15:13;;;;;;;;;;;;;;;22.37;98.92;97959.97;5009254;28;19923;-39
2022/05/24 11:17:38;;;;;;;;;;;;;;;22.55;98.66;97973.91;5013542;28;19924;-39
2022/05/24 11:20:04;;;;;;;;;;;;;;;23.41;93.53;97963.75;5034291;28;20357;-39
2022/05/24 11:22:35;;;;;;;;;;;;;;;22.68;95.95;97980.59;5024912;28;19917;-39
2022/05/24 11:25:19;;;;;;;;;;;;;;;23.28;93.84;97972.03;5025572;28;20451;-39
2022/05/24 11:27:50;;;;;;;;;;;;;;;23.67;92.43;97975.03;5030451;28;19923;-40
2022/05/24 11:30:15;;;;;;;;;;;;;;;23.37;94.56;97979.81;5033233;28;20410;-40
2022/05/24 11:32:44;;;;;;;;;;;;;;;23.69;94.02;97977.50;5032124;28;19968;-41
2022/05/24 11:35:23;;;;;;;;;;;;;;;24.15;88.74;97978.88;5028026;28;19917;-40
2022/05/24 11:37:58;;;;;;;;;;;;;;;25.43;90.29;97983.72;5015029;28;19982;-40
2022/05/24 11:40:30;;;;;;;;;;;;;;;25.13;87.81;97987.84;5033179;28;19924;-40
2022/05/24 11:42:56;;;;;;;;;;;;;;;23.27;89.78;97986.97;5030061;28;20061;-40
2022/05/24 11:45:44;;;;;;;;;;;;;;;24.09;95.05;97989.22;5025366;28;19936;-40
2022/05/24 11:48:13;;;;;;;;;;;;;;;25.45;88.09;97993.13;5020781;28;19917;-37
2022/05/24 11:50:39;;;;;;;;;;;;;;;25.65;89.91;97995.34;5018413;28;19925;-40
2022/05/24 11:53:05;;;;;;;;;;;;;;;25.19;81.54;97988.03;5031996;28;19928;-40
2022/05/24 11:55:40;;;;;;;;;;;;;;;24.75;82.44;97996.28;5009063;28;19921;-39
2022/05/24 11:58:20;;;;;;;;;;;;;;;26.23;77.64;97991.53;5032932;28;19932;-40
2022/05/24 12:00:58;;;;;;;;;;;;;;;25.46;87.26;97999.22;5033008;28;19970;-40
2022/05/24 12:09:10;;;;;;;;;;;;;;;23.72;84.98;98004.31;5028749;28;19927;-39
2022/05/24 12:11:36;;;;;;;;;;;;;;;26.02;83.49;97994.78;5025645;28;19916;-39
2022/05/24 12:14:15;;;;;;;;;;;;;;;25.04;81.31;98006.31;5026569;28;19948;-39
2022/05/24 12:16:56;;;;;;;;;;;;;;;24.94;72.46;98010.91;5025639;28;20382;-39
2022/05/24 12:19:43;;;;;;;;;;;;;;;24.69;72.13;98002.19;5004184;28;19917;-39
2022/05/24 12:22:09;;;;;;;;;;;;;;;24.91;78.73;98006.00;5026559;28;19921;-40
2022/05/24 12:24:41;;;;;;;;;;;;;;;24.63;71.94;98000.19;5005250;28;19925;-40
2022/05/24 12:27:21;;;;;;;;;;;;;;;25.16;74.51;98000.72;5028066;28;19921;-40
2022/05/24 12:29:48;;;;;;;;;;;;;;;24.26;73.16;98005.84;5021501;28;20543;-39
2022/05/24 12:32:14;;;;;;;;;;;;;;;26.31;74.76;97995.91;5021914;28;20012;-39
2022/05/24 12:34:40;;;;;;;;;;;;;;;24.77;81.10;98011.88;5025501;28;19921;-39
2022/05/24 12:37:28;;;;;;;;;;;;;;;25.14;75.59;97998.25;5031483;28;20409;-39
2022/05/24 12:40:08;;;;;;;;;;;;;;;24.81;76.27;98000.03;5016745;28;20031;-40
2022/05/24 12:42:33;;;;;;;;;;;;;;;25.12;82.74;98000.22;5026043;28;19917;-40
2022/05/24 12:45:02;;;;;;;;;;;;;;;23.44;83.85;98015.97;5026675;28;19972;-39
2022/05/24 12:47:27;;;;;;;;;;;;;;;26.29;75.97;97995.28;5010088;28;20278;-39
2022/05/24 12:49:54;;;;;;;;;;;;;;;25.51;69.87;98012.69;5028118;28;19929;-40
2022/05/24 12:52:22;;;;;;;;;;;;;;;25.43;74.88;98010.91;5031749;28;20011;-40
2022/05/24 12:54:52;;;;;;;;;;;;;;;24.46;74.58;98023.00;5024546;28;19965;-40
2022/05/24 12:57:17;;;;;;;;;;;;;;;26.23;74.04;98023.19;5022481;28;19982;-39
2022/05/24 12:59:43;;;;;;;;;;;;;;;26.01;80.99;98013.41;5026721;28;20646;-39
2022/05/24 13:02:15;;;;;;;;;;;;;;;25.50;74.88;98026.03;5028707;28;19925;-39
2022/05/24 13:04:40;;;;;;;;;;;;;;;23.51;84.16;98024.88;5028830;28;19931;-37
2022/05/24 13:07:29;;;;;;;;;;;;;;;23.42;81.79;98028.44;5024617;28;19920;-37
2022/05/24 13:09:54;;;;;;;;;;;;;;;24.45;79.68;98031.06;4999917;28;20581;-37
2022/05/24 13:12:20;;;;;;;;;;;;;;;24.11;77.98;98030.16;5023044;28;19924;-39
2022/05/24 13:14:45;;;;;;;;;;;;;;;25.14;79.92;98023.78;5011663;28;19929;-39
2022/05/24 13:17:11;;;;;;;;;;;;;;;25.69;80.31;98030.13;5025980;28;19920;-39
2022/05/24 13:19:55;;;;;;;;;;;;;;;26.79;82.81;98016.94;5005720;28;19983;-39
2022/05/24 13:22:20;;;;;;;;;;;;;;;26.41;82.52;98030.00;5024461;28;19916;-39
2022/05/24 13:24:50;;;;;;;;;;;;;;;25.59;81.10;98036.41;5009336;28;20641;-39